sensor_id;sensor_type;location;lat;lon;timestamp;pressure;altitude;pressure_sealevel;temperature;humidity
23427;BME280;41148;45.420;10.952;2022-07-23T00:01:43;100558.00;;;29.66;36.21
23427;BME280;41148;45.420;10.952;2022-07-23T00:04:10;100551.25;;;29.52;36.95
23427;BME280;41148;45.420;10.952;2022-07-23T00:06:37;100552.75;;;29.39;37.73
23427;BME280;41148;45.420;10.952;2022-07-23T00:09:04;100551.25;;;29.44;37.49
23427;BME280;41148;45.420;10.952;2022-07-23T00:11:32;100550.38;;;29.44;37.83
23427;BME280;41148;45.420;10.952;2022-07-23T00:13:59;100551.88;;;29.30;38.03
23427;BME280;41148;45.420;10.952;2022-07-23T00:16:26;100559.19;;;29.13;37.81
23427;BME280;41148;45.420;10.952;2022-07-23T00:18:54;100551.47;;;29.08;37.92
23427;BME280;41148;45.420;10.952;2022-07-23T00:21:21;100561.16;;;28.95;38.22
23427;BME280;41148;45.420;10.952;2022-07-23T00:23:48;100550.75;;;28.98;38.31
23427;BME280;41148;45.420;10.952;2022-07-23T00:26:15;100546.38;;;28.88;38.75
23427;BME280;41148;45.420;10.952;2022-07-23T00:28:43;100543.66;;;28.88;38.85
23427;BME280;41148;45.420;10.952;2022-07-23T00:31:10;100541.16;;;29.02;38.22
23427;BME280;41148;45.420;10.952;2022-07-23T00:33:38;100539.28;;;29.11;38.12
23427;BME280;41148;45.420;10.952;2022-07-23T00:36:05;100530.22;;;29.11;38.31
23427;BME280;41148;45.420;10.952;2022-07-23T00:38:33;100534.66;;;29.12;38.53
23427;BME280;41148;45.420;10.952;2022-07-23T00:41:01;100543.59;;;29.14;38.39
23427;BME280;41148;45.420;10.952;2022-07-23T00:43:29;100546.69;;;29.19;38.33
23427;BME280;41148;45.420;10.952;2022-07-23T00:45:57;100550.47;;;29.18;38.29
23427;BME280;41148;45.420;10.952;2022-07-23T00:48:26;100554.81;;;28.94;39.50
23427;BME280;41148;45.420;10.952;2022-07-23T00:50:53;100548.94;;;28.55;39.90
23427;BME280;41148;45.420;10.952;2022-07-23T00:53:21;100549.78;;;28.56;40.10
23427;BME280;41148;45.420;10.952;2022-07-23T00:55:50;100555.03;;;28.23;41.05
23427;BME280;41148;45.420;10.952;2022-07-23T00:58:17;100553.59;;;28.11;41.28
23427;BME280;41148;45.420;10.952;2022-07-23T01:00:46;100551.81;;;28.28;40.95
23427;BME280;41148;45.420;10.952;2022-07-23T01:03:13;100542.03;;;28.43;40.59
23427;BME280;41148;45.420;10.952;2022-07-23T01:05:41;100537.13;;;28.55;40.47
23427;BME280;41148;45.420;10.952;2022-07-23T01:08:08;100540.47;;;28.40;40.61
23427;BME280;41148;45.420;10.952;2022-07-23T01:10:36;100532.88;;;28.34;40.37
23427;BME280;41148;45.420;10.952;2022-07-23T01:13:06;100541.28;;;28.15;40.75
23427;BME280;41148;45.420;10.952;2022-07-23T01:15:36;100526.56;;;28.34;40.81
23427;BME280;41148;45.420;10.952;2022-07-23T01:18:04;100523.56;;;28.27;40.80
23427;BME280;41148;45.420;10.952;2022-07-23T01:20:33;100520.53;;;28.30;40.89
23427;BME280;41148;45.420;10.952;2022-07-23T01:23:01;100517.69;;;28.40;40.57
23427;BME280;41148;45.420;10.952;2022-07-23T01:25:29;100517.59;;;28.49;40.42
23427;BME280;41148;45.420;10.952;2022-07-23T01:28:00;100512.63;;;28.53;40.54
23427;BME280;41148;45.420;10.952;2022-07-23T01:30:28;100511.59;;;28.54;40.71
23427;BME280;41148;45.420;10.952;2022-07-23T01:32:58;100513.81;;;28.50;40.61
23427;BME280;41148;45.420;10.952;2022-07-23T01:35:26;100520.63;;;28.46;41.20
23427;BME280;41148;45.420;10.952;2022-07-23T01:37:58;100520.59;;;28.38;41.51
23427;BME280;41148;45.420;10.952;2022-07-23T01:40:27;100523.28;;;28.30;41.31
23427;BME280;41148;45.420;10.952;2022-07-23T01:42:56;100535.47;;;28.18;41.32
23427;BME280;41148;45.420;10.952;2022-07-23T01:45:27;100530.66;;;28.12;41.41
23427;BME280;41148;45.420;10.952;2022-07-23T01:47:55;100535.91;;;28.05;41.82
23427;BME280;41148;45.420;10.952;2022-07-23T01:50:22;100539.13;;;28.01;41.20
23427;BME280;41148;45.420;10.952;2022-07-23T01:52:59;100543.03;;;27.98;41.30
23427;BME280;41148;45.420;10.952;2022-07-23T01:55:27;100546.78;;;27.97;41.39
23427;BME280;41148;45.420;10.952;2022-07-23T01:57:54;100548.22;;;28.01;41.21
23427;BME280;41148;45.420;10.952;2022-07-23T02:00:26;100559.16;;;28.01;41.33
23427;BME280;41148;45.420;10.952;2022-07-23T02:02:54;100565.78;;;27.99;41.50
23427;BME280;41148;45.420;10.952;2022-07-23T02:05:22;100577.06;;;27.95;41.46
23427;BME280;41148;45.420;10.952;2022-07-23T02:07:49;100581.69;;;27.95;41.49
23427;BME280;41148;45.420;10.952;2022-07-23T02:10:17;100582.88;;;27.92;41.47
23427;BME280;41148;45.420;10.952;2022-07-23T02:12:44;100590.22;;;27.92;41.56
23427;BME280;41148;45.420;10.952;2022-07-23T02:15:12;100597.88;;;27.88;41.58
23427;BME280;41148;45.420;10.952;2022-07-23T02:17:40;100599.06;;;27.86;41.69
23427;BME280;41148;45.420;10.952;2022-07-23T02:20:08;100597.19;;;27.59;42.49
23427;BME280;41148;45.420;10.952;2022-07-23T02:22:36;100594.63;;;27.57;42.46
23427;BME280;41148;45.420;10.952;2022-07-23T02:25:04;100591.00;;;27.66;42.13
23427;BME280;41148;45.420;10.952;2022-07-23T02:27:33;100591.13;;;27.65;42.33
23427;BME280;41148;45.420;10.952;2022-07-23T02:30:02;100585.34;;;27.68;42.33
23427;BME280;41148;45.420;10.952;2022-07-23T02:32:33;100584.94;;;27.63;42.87
23427;BME280;41148;45.420;10.952;2022-07-23T02:35:02;100587.38;;;27.21;43.82
23427;BME280;41148;45.420;10.952;2022-07-23T02:37:30;100593.78;;;27.29;43.19
23427;BME280;41148;45.420;10.952;2022-07-23T02:39:58;100587.53;;;27.19;43.43
23427;BME280;41148;45.420;10.952;2022-07-23T02:42:26;100585.09;;;27.16;43.43
23427;BME280;41148;45.420;10.952;2022-07-23T02:44:54;100590.50;;;27.26;43.06
23427;BME280;41148;45.420;10.952;2022-07-23T02:47:22;100589.97;;;27.40;42.78
23427;BME280;41148;45.420;10.952;2022-07-23T02:49:49;100589.69;;;27.43;42.70
23427;BME280;41148;45.420;10.952;2022-07-23T02:52:17;100591.78;;;27.49;42.41
23427;BME280;41148;45.420;10.952;2022-07-23T02:54:45;100588.19;;;27.49;42.24
23427;BME280;41148;45.420;10.952;2022-07-23T02:57:15;100579.28;;;27.47;42.28
23427;BME280;41148;45.420;10.952;2022-07-23T02:59:42;100588.53;;;27.46;42.27
23427;BME280;41148;45.420;10.952;2022-07-23T03:02:09;100586.47;;;27.48;42.12
23427;BME280;41148;45.420;10.952;2022-07-23T03:04:37;100589.38;;;27.46;42.17
23427;BME280;41148;45.420;10.952;2022-07-23T03:07:05;100590.25;;;27.47;41.99
23427;BME280;41148;45.420;10.952;2022-07-23T03:09:32;100591.09;;;27.47;42.04
23427;BME280;41148;45.420;10.952;2022-07-23T03:11:59;100587.50;;;27.47;41.78
23427;BME280;41148;45.420;10.952;2022-07-23T03:14:27;100588.03;;;27.50;41.33
23427;BME280;41148;45.420;10.952;2022-07-23T03:16:55;100583.13;;;27.54;41.20
23427;BME280;41148;45.420;10.952;2022-07-23T03:19:22;100584.00;;;27.54;41.09
23427;BME280;41148;45.420;10.952;2022-07-23T03:21:50;100581.25;;;27.54;40.95
23427;BME280;41148;45.420;10.952;2022-07-23T03:24:17;100579.72;;;27.52;40.55
23427;BME280;41148;45.420;10.952;2022-07-23T03:26:45;100576.66;;;27.55;40.29
23427;BME280;41148;45.420;10.952;2022-07-23T03:29:12;100586.09;;;27.70;39.69
23427;BME280;41148;45.420;10.952;2022-07-23T03:31:40;100584.50;;;27.67;39.75
23427;BME280;41148;45.420;10.952;2022-07-23T03:34:07;100589.81;;;27.69;39.78
23427;BME280;41148;45.420;10.952;2022-07-23T03:36:35;100584.38;;;27.59;40.19
23427;BME280;41148;45.420;10.952;2022-07-23T03:39:04;100592.38;;;27.53;40.11
23427;BME280;41148;45.420;10.952;2022-07-23T03:41:31;100585.78;;;27.46;40.40
23427;BME280;41148;45.420;10.952;2022-07-23T03:43:59;100589.13;;;27.39;40.43
23427;BME280;41148;45.420;10.952;2022-07-23T03:46:27;100593.50;;;27.32;40.65
23427;BME280;41148;45.420;10.952;2022-07-23T03:48:55;100593.94;;;27.28;40.76
23427;BME280;41148;45.420;10.952;2022-07-23T03:51:25;100586.28;;;27.14;41.21
23427;BME280;41148;45.420;10.952;2022-07-23T03:53:52;100595.66;;;27.29;41.03
23427;BME280;41148;45.420;10.952;2022-07-23T03:56:21;100587.19;;;27.32;41.09
23427;BME280;41148;45.420;10.952;2022-07-23T03:58:49;100588.75;;;27.34;41.03
23427;BME280;41148;45.420;10.952;2022-07-23T04:01:16;100588.09;;;27.41;41.12
23427;BME280;41148;45.420;10.952;2022-07-23T04:03:44;100594.59;;;27.22;42.94
23427;BME280;41148;45.420;10.952;2022-07-23T04:06:14;100592.78;;;27.30;42.30
23427;BME280;41148;45.420;10.952;2022-07-23T04:08:41;100596.09;;;27.34;41.72
23427;BME280;41148;45.420;10.952;2022-07-23T04:11:09;100598.81;;;27.34;41.37
23427;BME280;41148;45.420;10.952;2022-07-23T04:13:37;100603.59;;;27.32;41.52
23427;BME280;41148;45.420;10.952;2022-07-23T04:16:04;100604.50;;;27.23;41.50
23427;BME280;41148;45.420;10.952;2022-07-23T04:18:34;100607.41;;;27.12;41.83
23427;BME280;41148;45.420;10.952;2022-07-23T04:21:15;100611.94;;;27.03;42.38
23427;BME280;41148;45.420;10.952;2022-07-23T04:23:45;100616.81;;;26.99;42.35
23427;BME280;41148;45.420;10.952;2022-07-23T04:26:13;100613.53;;;26.96;42.20
23427;BME280;41148;45.420;10.952;2022-07-23T04:28:46;100617.84;;;26.89;42.30
23427;BME280;41148;45.420;10.952;2022-07-23T04:31:13;100619.56;;;26.90;42.73
23427;BME280;41148;45.420;10.952;2022-07-23T04:33:41;100612.84;;;26.84;43.00
23427;BME280;41148;45.420;10.952;2022-07-23T04:36:09;100617.19;;;26.77;43.55
23427;BME280;41148;45.420;10.952;2022-07-23T04:38:37;100607.25;;;26.76;43.83
23427;BME280;41148;45.420;10.952;2022-07-23T04:41:06;100607.41;;;26.74;43.58
23427;BME280;41148;45.420;10.952;2022-07-23T04:43:33;100605.69;;;26.73;43.73
23427;BME280;41148;45.420;10.952;2022-07-23T04:46:01;100607.53;;;26.73;43.50
23427;BME280;41148;45.420;10.952;2022-07-23T04:48:34;100607.84;;;26.70;43.43
23427;BME280;41148;45.420;10.952;2022-07-23T04:51:08;100607.00;;;26.69;43.87
23427;BME280;41148;45.420;10.952;2022-07-23T04:53:37;100604.41;;;26.68;43.64
23427;BME280;41148;45.420;10.952;2022-07-23T04:56:05;100605.13;;;26.70;43.55
23427;BME280;41148;45.420;10.952;2022-07-23T04:58:32;100610.00;;;26.76;43.59
23427;BME280;41148;45.420;10.952;2022-07-23T05:01:00;100603.22;;;26.80;43.30
23427;BME280;41148;45.420;10.952;2022-07-23T05:03:30;100596.44;;;26.84;43.42
23427;BME280;41148;45.420;10.952;2022-07-23T05:05:57;100598.56;;;26.90;42.74
23427;BME280;41148;45.420;10.952;2022-07-23T05:08:25;100596.09;;;26.97;43.28
23427;BME280;41148;45.420;10.952;2022-07-23T05:10:54;100596.25;;;27.05;43.01
23427;BME280;41148;45.420;10.952;2022-07-23T05:13:22;100595.56;;;27.21;42.88
23427;BME280;41148;45.420;10.952;2022-07-23T05:15:53;100598.66;;;27.35;42.36
23427;BME280;41148;45.420;10.952;2022-07-23T05:18:21;100597.75;;;27.45;42.10
23427;BME280;41148;45.420;10.952;2022-07-23T05:20:48;100601.44;;;27.53;41.57
23427;BME280;41148;45.420;10.952;2022-07-23T05:23:19;100604.50;;;27.68;40.98
23427;BME280;41148;45.420;10.952;2022-07-23T05:25:47;100602.63;;;27.69;41.54
23427;BME280;41148;45.420;10.952;2022-07-23T05:28:16;100597.72;;;27.72;41.36
23427;BME280;41148;45.420;10.952;2022-07-23T05:30:48;100597.66;;;27.82;40.97
23427;BME280;41148;45.420;10.952;2022-07-23T05:33:18;100603.03;;;27.74;42.02
23427;BME280;41148;45.420;10.952;2022-07-23T05:35:47;100617.09;;;27.79;41.96
23427;BME280;41148;45.420;10.952;2022-07-23T05:38:28;100607.59;;;27.83;41.97
23427;BME280;41148;45.420;10.952;2022-07-23T05:40:59;100612.13;;;27.74;42.73
23427;BME280;41148;45.420;10.952;2022-07-23T05:43:28;100605.47;;;27.77;42.49
23427;BME280;41148;45.420;10.952;2022-07-23T05:45:58;100600.84;;;27.77;42.62
23427;BME280;41148;45.420;10.952;2022-07-23T05:48:25;100607.34;;;27.76;42.57
23427;BME280;41148;45.420;10.952;2022-07-23T05:51:07;100607.03;;;27.79;42.69
23427;BME280;41148;45.420;10.952;2022-07-23T05:53:34;100612.97;;;27.75;42.13
23427;BME280;41148;45.420;10.952;2022-07-23T05:56:21;100609.22;;;27.76;42.20
23427;BME280;41148;45.420;10.952;2022-07-23T05:58:49;100613.06;;;27.83;42.07
23427;BME280;41148;45.420;10.952;2022-07-23T06:01:18;100607.75;;;27.99;41.82
23427;BME280;41148;45.420;10.952;2022-07-23T06:03:53;100608.53;;;28.09;41.62
23427;BME280;41148;45.420;10.952;2022-07-23T06:06:20;100609.75;;;28.15;41.64
23427;BME280;41148;45.420;10.952;2022-07-23T06:08:48;100610.09;;;28.12;41.42
23427;BME280;41148;45.420;10.952;2022-07-23T06:11:15;100610.78;;;28.14;41.35
23427;BME280;41148;45.420;10.952;2022-07-23T06:13:43;100610.84;;;28.22;41.29
23427;BME280;41148;45.420;10.952;2022-07-23T06:16:10;100616.00;;;28.43;40.88
23427;BME280;41148;45.420;10.952;2022-07-23T06:18:38;100613.53;;;28.32;40.68
23427;BME280;41148;45.420;10.952;2022-07-23T06:21:06;100615.25;;;28.33;41.09
23427;BME280;41148;45.420;10.952;2022-07-23T06:23:53;100629.19;;;28.39;40.88
23427;BME280;41148;45.420;10.952;2022-07-23T06:26:20;100635.78;;;28.55;41.00
23427;BME280;41148;45.420;10.952;2022-07-23T06:28:47;100630.25;;;28.72;40.25
23427;BME280;41148;45.420;10.952;2022-07-23T06:31:15;100624.19;;;28.87;39.73
23427;BME280;41148;45.420;10.952;2022-07-23T06:33:42;100624.97;;;28.97;39.69
23427;BME280;41148;45.420;10.952;2022-07-23T06:36:10;100626.38;;;29.09;39.33
23427;BME280;41148;45.420;10.952;2022-07-23T06:38:37;100627.59;;;29.06;39.14
23427;BME280;41148;45.420;10.952;2022-07-23T06:41:05;100640.78;;;29.11;38.95
23427;BME280;41148;45.420;10.952;2022-07-23T06:43:33;100629.84;;;29.19;38.97
23427;BME280;41148;45.420;10.952;2022-07-23T06:46:00;100642.53;;;29.20;38.88
23427;BME280;41148;45.420;10.952;2022-07-23T06:48:27;100643.63;;;29.27;38.51
23427;BME280;41148;45.420;10.952;2022-07-23T06:50:56;100644.38;;;29.46;38.39
23427;BME280;41148;45.420;10.952;2022-07-23T06:53:24;100645.81;;;29.58;38.34
23427;BME280;41148;45.420;10.952;2022-07-23T06:55:51;100649.41;;;29.58;38.33
23427;BME280;41148;45.420;10.952;2022-07-23T06:58:18;100645.66;;;29.68;38.19
23427;BME280;41148;45.420;10.952;2022-07-23T07:00:46;100652.03;;;29.68;36.95
23427;BME280;41148;45.420;10.952;2022-07-23T07:03:13;100659.63;;;29.82;36.90
23427;BME280;41148;45.420;10.952;2022-07-23T07:05:40;100657.22;;;29.87;37.33
23427;BME280;41148;45.420;10.952;2022-07-23T07:08:08;100665.13;;;29.99;36.79
23427;BME280;41148;45.420;10.952;2022-07-23T07:10:35;100663.66;;;30.12;36.55
23427;BME280;41148;45.420;10.952;2022-07-23T07:13:02;100663.81;;;30.19;36.09
23427;BME280;41148;45.420;10.952;2022-07-23T07:15:29;100669.66;;;30.24;36.43
23427;BME280;41148;45.420;10.952;2022-07-23T07:17:57;100668.81;;;30.24;36.21
23427;BME280;41148;45.420;10.952;2022-07-23T07:20:24;100675.84;;;30.26;36.15
23427;BME280;41148;45.420;10.952;2022-07-23T07:22:51;100674.13;;;30.33;36.15
23427;BME280;41148;45.420;10.952;2022-07-23T07:25:18;100672.75;;;30.37;36.09
23427;BME280;41148;45.420;10.952;2022-07-23T07:27:46;100670.00;;;30.45;36.32
23427;BME280;41148;45.420;10.952;2022-07-23T07:30:13;100671.03;;;30.44;36.71
23427;BME280;41148;45.420;10.952;2022-07-23T07:32:40;100673.97;;;30.43;36.98
23427;BME280;41148;45.420;10.952;2022-07-23T07:35:24;100672.44;;;30.40;36.80
23427;BME280;41148;45.420;10.952;2022-07-23T07:37:52;100674.81;;;30.52;37.08
23427;BME280;41148;45.420;10.952;2022-07-23T07:40:19;100674.13;;;30.58;36.93
23427;BME280;41148;45.420;10.952;2022-07-23T07:42:47;100674.81;;;30.68;36.53
23427;BME280;41148;45.420;10.952;2022-07-23T07:45:15;100675.34;;;30.80;35.64
23427;BME280;41148;45.420;10.952;2022-07-23T07:47:42;100673.28;;;30.82;35.32
23427;BME280;41148;45.420;10.952;2022-07-23T07:50:10;100668.28;;;30.77;35.87
23427;BME280;41148;45.420;10.952;2022-07-23T07:52:38;100665.69;;;30.84;35.94
23427;BME280;41148;45.420;10.952;2022-07-23T07:55:07;100664.53;;;30.70;35.44
23427;BME280;41148;45.420;10.952;2022-07-23T07:57:35;100671.03;;;30.77;35.85
23427;BME280;41148;45.420;10.952;2022-07-23T08:00:03;100665.53;;;30.85;35.67
23427;BME280;41148;45.420;10.952;2022-07-23T08:02:44;100667.59;;;30.91;35.68
23427;BME280;41148;45.420;10.952;2022-07-23T08:05:12;100669.59;;;31.05;35.42
23427;BME280;41148;45.420;10.952;2022-07-23T08:07:40;100669.41;;;31.15;35.55
23427;BME280;41148;45.420;10.952;2022-07-23T08:10:08;100667.16;;;31.19;36.11
23427;BME280;41148;45.420;10.952;2022-07-23T08:15:12;100671.28;;;31.31;36.32
23427;BME280;41148;45.420;10.952;2022-07-23T08:17:41;100667.13;;;31.35;36.39
23427;BME280;41148;45.420;10.952;2022-07-23T08:20:09;100670.84;;;31.50;34.48
23427;BME280;41148;45.420;10.952;2022-07-23T08:22:53;100668.91;;;31.59;34.31
23427;BME280;41148;45.420;10.952;2022-07-23T08:25:33;100672.06;;;31.48;34.12
23427;BME280;41148;45.420;10.952;2022-07-23T08:28:01;100679.13;;;31.42;33.71
23427;BME280;41148;45.420;10.952;2022-07-23T08:30:30;100674.53;;;31.34;34.36
23427;BME280;41148;45.420;10.952;2022-07-23T08:35:32;100675.44;;;31.66;34.14
23427;BME280;41148;45.420;10.952;2022-07-23T08:38:01;100674.38;;;31.75;33.83
23427;BME280;41148;45.420;10.952;2022-07-23T08:40:30;100666.13;;;31.98;33.24
23427;BME280;41148;45.420;10.952;2022-07-23T08:42:58;100665.09;;;31.99;33.82
23427;BME280;41148;45.420;10.952;2022-07-23T08:45:26;100671.66;;;31.98;33.50
23427;BME280;41148;45.420;10.952;2022-07-23T08:47:55;100666.28;;;32.05;33.80
23427;BME280;41148;45.420;10.952;2022-07-23T08:50:23;100660.53;;;32.14;34.13
23427;BME280;41148;45.420;10.952;2022-07-23T08:52:51;100663.66;;;32.34;33.23
23427;BME280;41148;45.420;10.952;2022-07-23T08:55:19;100658.78;;;32.59;32.41
23427;BME280;41148;45.420;10.952;2022-07-23T08:57:47;100660.59;;;32.67;31.64
23427;BME280;41148;45.420;10.952;2022-07-23T09:00:15;100653.50;;;32.72;32.38
23427;BME280;41148;45.420;10.952;2022-07-23T09:02:43;100660.75;;;32.88;32.16
23427;BME280;41148;45.420;10.952;2022-07-23T09:05:11;100657.16;;;32.88;32.40
23427;BME280;41148;45.420;10.952;2022-07-23T09:10:26;100660.88;;;33.24;30.90
23427;BME280;41148;45.420;10.952;2022-07-23T09:12:53;100658.31;;;33.23;29.89
23427;BME280;41148;45.420;10.952;2022-07-23T09:15:20;100651.56;;;33.11;30.47
23427;BME280;41148;45.420;10.952;2022-07-23T09:17:48;100645.72;;;32.91;30.45
23427;BME280;41148;45.420;10.952;2022-07-23T09:20:16;100638.63;;;33.11;28.42
23427;BME280;41148;45.420;10.952;2022-07-23T09:22:45;100632.03;;;33.42;28.00
23427;BME280;41148;45.420;10.952;2022-07-23T09:25:15;100634.22;;;33.31;29.07
23427;BME280;41148;45.420;10.952;2022-07-23T09:27:53;100630.50;;;33.39;29.56
23427;BME280;41148;45.420;10.952;2022-07-23T09:30:22;100629.66;;;33.75;28.38
23427;BME280;41148;45.420;10.952;2022-07-23T09:33:09;100628.09;;;34.02;26.73
23427;BME280;41148;45.420;10.952;2022-07-23T09:35:47;100635.38;;;34.31;25.12
23427;BME280;41148;45.420;10.952;2022-07-23T09:38:15;100631.41;;;34.61;24.65
23427;BME280;41148;45.420;10.952;2022-07-23T09:40:43;100624.78;;;34.56;25.57
23427;BME280;41148;45.420;10.952;2022-07-23T09:43:10;100623.31;;;34.88;25.41
23427;BME280;41148;45.420;10.952;2022-07-23T09:45:37;100622.38;;;35.09;25.11
23427;BME280;41148;45.420;10.952;2022-07-23T09:48:10;100614.09;;;34.81;25.21
23427;BME280;41148;45.420;10.952;2022-07-23T09:50:39;100613.50;;;34.85;24.15
23427;BME280;41148;45.420;10.952;2022-07-23T09:53:06;100615.31;;;34.71;22.46
23427;BME280;41148;45.420;10.952;2022-07-23T09:55:34;100615.06;;;34.38;22.69
23427;BME280;41148;45.420;10.952;2022-07-23T09:58:04;100621.31;;;34.47;22.75
23427;BME280;41148;45.420;10.952;2022-07-23T10:00:33;100618.13;;;34.50;22.18
23427;BME280;41148;45.420;10.952;2022-07-23T10:03:03;100611.69;;;34.43;22.55
23427;BME280;41148;45.420;10.952;2022-07-23T10:05:55;100610.38;;;34.18;22.11
23427;BME280;41148;45.420;10.952;2022-07-23T10:08:30;100614.44;;;34.43;21.75
23427;BME280;41148;45.420;10.952;2022-07-23T10:11:30;100599.75;;;34.70;22.23
23427;BME280;41148;45.420;10.952;2022-07-23T10:14:05;100603.09;;;34.59;22.11
23427;BME280;41148;45.420;10.952;2022-07-23T10:16:49;100604.72;;;34.75;20.66
23427;BME280;41148;45.420;10.952;2022-07-23T10:19:16;100599.19;;;34.82;20.87
23427;BME280;41148;45.420;10.952;2022-07-23T10:21:48;100596.84;;;34.79;21.22
23427;BME280;41148;45.420;10.952;2022-07-23T10:24:23;100603.09;;;34.59;20.78
23427;BME280;41148;45.420;10.952;2022-07-23T10:26:58;100601.28;;;34.45;21.65
23427;BME280;41148;45.420;10.952;2022-07-23T10:34:58;100589.44;;;34.86;20.54
23427;BME280;41148;45.420;10.952;2022-07-23T10:37:41;100597.00;;;34.98;19.78
23427;BME280;41148;45.420;10.952;2022-07-23T10:40:20;100596.38;;;35.03;21.02
23427;BME280;41148;45.420;10.952;2022-07-23T10:42:48;100593.44;;;35.11;20.39
23427;BME280;41148;45.420;10.952;2022-07-23T10:45:31;100601.13;;;35.16;20.52
23427;BME280;41148;45.420;10.952;2022-07-23T10:48:18;100596.25;;;35.18;19.95
23427;BME280;41148;45.420;10.952;2022-07-23T10:53:55;100592.41;;;35.19;22.09
23427;BME280;41148;45.420;10.952;2022-07-23T10:59:09;100588.38;;;35.21;23.43
23427;BME280;41148;45.420;10.952;2022-07-23T11:01:38;100587.09;;;35.17;23.43
23427;BME280;41148;45.420;10.952;2022-07-23T11:04:05;100584.91;;;35.13;23.28
23427;BME280;41148;45.420;10.952;2022-07-23T11:09:28;100579.38;;;35.13;23.42
23427;BME280;41148;45.420;10.952;2022-07-23T11:17:33;100569.41;;;35.18;25.29
23427;BME280;41148;45.420;10.952;2022-07-23T11:22:46;100553.34;;;34.94;26.10
23427;BME280;41148;45.420;10.952;2022-07-23T11:27:51;100557.56;;;34.90;26.77
23427;BME280;41148;45.420;10.952;2022-07-23T11:33:24;100541.28;;;34.80;26.23
23427;BME280;41148;45.420;10.952;2022-07-23T11:35:59;100546.63;;;34.82;26.43
23427;BME280;41148;45.420;10.952;2022-07-23T11:38:30;100545.69;;;35.03;26.03
23427;BME280;41148;45.420;10.952;2022-07-23T11:40:58;100538.69;;;34.72;26.16
23427;BME280;41148;45.420;10.952;2022-07-23T11:43:26;100540.22;;;34.75;26.18
23427;BME280;41148;45.420;10.952;2022-07-23T11:45:58;100533.19;;;34.79;24.89
23427;BME280;41148;45.420;10.952;2022-07-23T11:48:26;100542.59;;;34.84;24.44
23427;BME280;41148;45.420;10.952;2022-07-23T11:50:55;100527.50;;;34.87;24.44
23427;BME280;41148;45.420;10.952;2022-07-23T11:53:25;100538.59;;;34.93;24.08
23427;BME280;41148;45.420;10.952;2022-07-23T11:55:53;100530.31;;;34.93;24.47
23427;BME280;41148;45.420;10.952;2022-07-23T11:58:22;100526.50;;;35.01;24.87
23427;BME280;41148;45.420;10.952;2022-07-23T12:00:49;100527.16;;;34.96;25.12
23427;BME280;41148;45.420;10.952;2022-07-23T12:03:17;100520.56;;;34.97;25.25
23427;BME280;41148;45.420;10.952;2022-07-23T12:05:45;100522.69;;;35.02;25.43
23427;BME280;41148;45.420;10.952;2022-07-23T12:08:12;100520.59;;;35.04;25.69
23427;BME280;41148;45.420;10.952;2022-07-23T12:10:41;100519.50;;;34.98;25.97
23427;BME280;41148;45.420;10.952;2022-07-23T12:13:13;100516.28;;;35.02;26.15
23427;BME280;41148;45.420;10.952;2022-07-23T12:15:42;100514.84;;;35.12;27.00
23427;BME280;41148;45.420;10.952;2022-07-23T12:18:11;100511.03;;;35.13;27.33
23427;BME280;41148;45.420;10.952;2022-07-23T12:20:43;100507.81;;;35.10;27.72
23427;BME280;41148;45.420;10.952;2022-07-23T12:23:11;100506.13;;;35.09;27.59
23427;BME280;41148;45.420;10.952;2022-07-23T12:25:46;100504.88;;;34.77;27.74
23427;BME280;41148;45.420;10.952;2022-07-23T12:28:18;100494.41;;;34.72;28.25
23427;BME280;41148;45.420;10.952;2022-07-23T12:30:52;100501.91;;;34.78;28.06
23427;BME280;41148;45.420;10.952;2022-07-23T12:33:27;100500.63;;;34.81;27.58
23427;BME280;41148;45.420;10.952;2022-07-23T12:35:56;100495.75;;;34.83;27.26
23427;BME280;41148;45.420;10.952;2022-07-23T12:38:25;100494.28;;;34.87;27.32
23427;BME280;41148;45.420;10.952;2022-07-23T12:40:53;100502.00;;;34.91;27.73
23427;BME280;41148;45.420;10.952;2022-07-23T12:43:25;100494.75;;;34.90;27.55
23427;BME280;41148;45.420;10.952;2022-07-23T12:48:26;100485.84;;;34.95;27.35
23427;BME280;41148;45.420;10.952;2022-07-23T12:53:41;100492.66;;;34.99;27.15
23427;BME280;41148;45.420;10.952;2022-07-23T12:56:13;100498.19;;;34.99;27.46
23427;BME280;41148;45.420;10.952;2022-07-23T12:58:52;100485.41;;;34.98;27.43
23427;BME280;41148;45.420;10.952;2022-07-23T13:04:00;100490.56;;;35.08;26.97
23427;BME280;41148;45.420;10.952;2022-07-23T13:06:29;100489.72;;;35.07;26.89
23427;BME280;41148;45.420;10.952;2022-07-23T13:08:57;100491.84;;;35.05;26.75
23427;BME280;41148;45.420;10.952;2022-07-23T13:11:24;100493.09;;;35.03;26.14
23427;BME280;41148;45.420;10.952;2022-07-23T13:13:52;100486.69;;;35.02;25.72
23427;BME280;41148;45.420;10.952;2022-07-23T13:16:19;100491.16;;;35.03;25.21
23427;BME280;41148;45.420;10.952;2022-07-23T13:18:47;100484.59;;;35.11;24.87
23427;BME280;41148;45.420;10.952;2022-07-23T13:21:35;100484.00;;;35.22;24.52
23427;BME280;41148;45.420;10.952;2022-07-23T13:24:02;100474.44;;;35.24;24.29
23427;BME280;41148;45.420;10.952;2022-07-23T13:26:49;100476.75;;;35.14;24.71
23427;BME280;41148;45.420;10.952;2022-07-23T13:29:18;100470.16;;;35.15;24.62
23427;BME280;41148;45.420;10.952;2022-07-23T13:31:46;100479.94;;;35.18;25.59
23427;BME280;41148;45.420;10.952;2022-07-23T13:34:15;100471.59;;;35.11;26.63
23427;BME280;41148;45.420;10.952;2022-07-23T13:36:42;100472.25;;;35.07;26.77